createdAt,value
2022-08-24T00:01:58.423Z,52.77
2022-08-24T00:04:27.017Z,53.36
2022-08-24T00:06:56.527Z,53.25
2022-08-24T00:09:24.493Z,53.23
2022-08-24T00:11:53.787Z,53.64
2022-08-24T00:14:21.689Z,53.37
2022-08-24T00:16:49.681Z,53.90
2022-08-24T00:19:18.274Z,54.07
2022-08-24T00:21:46.089Z,54.44
2022-08-24T00:24:14.617Z,54.18
2022-08-24T00:26:42.509Z,54.64
2022-08-24T00:29:11.661Z,54.56
2022-08-24T00:31:39.584Z,54.67
2022-08-24T00:34:07.803Z,54.40
2022-08-24T00:36:36.200Z,54.18
2022-08-24T00:39:05.771Z,54.85
2022-08-24T00:41:33.782Z,55.24
2022-08-24T00:44:03.639Z,55.25
2022-08-24T00:46:43.579Z,55.02
2022-08-24T00:49:18.731Z,55.89
2022-08-24T00:51:55.529Z,55.66
2022-08-24T00:54:26.867Z,55.43
2022-08-24T00:56:58.956Z,55.80
2022-08-24T00:59:35.394Z,56.10
2022-08-24T01:02:15.319Z,56.23
2022-08-24T01:04:50.069Z,56.09
2022-08-24T01:07:18.348Z,56.31
2022-08-24T01:09:46.313Z,56.17
2022-08-24T01:12:14.193Z,56.62
2022-08-24T01:14:42.302Z,56.46
2022-08-24T01:17:29.419Z,56.83
2022-08-24T01:19:59.628Z,57.22
2022-08-24T01:22:48.329Z,56.60
2022-08-24T01:25:17.943Z,57.14
2022-08-24T01:27:46.399Z,56.90
2022-08-24T01:30:17.338Z,56.91
2022-08-24T01:32:55.174Z,57.31
2022-08-24T01:35:23.181Z,57.48
2022-08-24T01:37:52.547Z,57.81
2022-08-24T01:40:22.784Z,58.06
2022-08-24T01:42:52.055Z,57.63
2022-08-24T01:45:22.901Z,58.15
2022-08-24T01:47:50.940Z,57.55
2022-08-24T01:50:19.010Z,58.11
2022-08-24T01:53:04.308Z,57.83
2022-08-24T01:55:35.539Z,58.02
2022-08-24T01:58:04.136Z,57.96
2022-08-24T02:00:32.687Z,57.96
2022-08-24T02:03:00.616Z,58.04
2022-08-24T02:05:29.656Z,58.50
2022-08-24T02:07:58.785Z,58.25
2022-08-24T02:10:27.566Z,59.04
2022-08-24T02:12:58.999Z,58.70
2022-08-24T02:15:29.715Z,59.12
2022-08-24T02:17:59.013Z,59.36
2022-08-24T02:20:28.038Z,58.91
2022-08-24T02:22:57.082Z,58.93
2022-08-24T02:25:26.347Z,59.50
2022-08-24T02:27:56.219Z,59.69
2022-08-24T02:30:24.193Z,59.87
2022-08-24T02:32:52.089Z,59.73
2022-08-24T02:35:21.222Z,59.69
2022-08-24T02:37:50.007Z,59.90
2022-08-24T02:40:18.276Z,60.47
2022-08-24T02:42:46.774Z,60.25
2022-08-24T02:45:16.306Z,60.06
2022-08-24T02:47:45.876Z,60.63
2022-08-24T02:50:17.057Z,61.06
2022-08-24T02:52:46.215Z,61.02
2022-08-24T02:55:20.127Z,61.00
2022-08-24T02:57:52.090Z,60.87
2022-08-24T03:00:22.914Z,60.90
2022-08-24T03:02:54.787Z,60.99
2022-08-24T03:05:24.228Z,61.43
2022-08-24T03:07:52.842Z,61.38
2022-08-24T03:10:21.755Z,61.85
2022-08-24T03:12:50.613Z,61.91
2022-08-24T03:15:23.177Z,62.01
2022-08-24T03:17:52.525Z,62.10
2022-08-24T03:20:23.589Z,62.33
2022-08-24T03:22:52.123Z,62.57
2022-08-24T03:25:24.509Z,62.05
2022-08-24T03:27:53.289Z,62.22
2022-08-24T03:30:24.061Z,62.58
2022-08-24T03:32:52.615Z,62.50
2022-08-24T03:35:21.961Z,63.14
2022-08-24T03:37:50.819Z,62.70
2022-08-24T03:40:23.104Z,63.27
2022-08-24T03:42:55.679Z,63.27
2022-08-24T03:45:25.128Z,63.48
2022-08-24T03:47:55.352Z,63.44
2022-08-24T03:50:25.114Z,64.19
2022-08-24T03:52:53.566Z,63.62
2022-08-24T03:55:22.477Z,63.69
2022-08-24T03:57:50.405Z,63.58
2022-08-24T04:00:18.736Z,64.14
2022-08-24T04:02:57.229Z,64.34
2022-08-24T04:05:27.333Z,64.48
2022-08-24T04:07:55.621Z,65.05
2022-08-24T04:10:24.651Z,65.34
2022-08-24T04:12:54.888Z,64.83
2022-08-24T04:15:24.442Z,64.83
2022-08-24T04:17:52.969Z,65.07
2022-08-24T04:20:22.781Z,64.86
2022-08-24T04:23:01.851Z,65.32
2022-08-24T04:25:29.710Z,65.32
2022-08-24T04:27:58.399Z,65.57
2022-08-24T04:30:26.304Z,65.48
2022-08-24T04:33:08.544Z,65.48
2022-08-24T04:35:40.547Z,65.22
2022-08-24T04:38:09.203Z,65.69
2022-08-24T04:40:40.692Z,65.79
2022-08-24T04:43:10.425Z,66.17
2022-08-24T04:45:40.879Z,66.32
2022-08-24T04:48:09.035Z,66.62
2022-08-24T04:50:38.175Z,66.45
2022-08-24T04:53:08.519Z,66.08
2022-08-24T04:55:44.893Z,66.08
2022-08-24T04:58:13.576Z,66.01
2022-08-24T05:00:42.117Z,66.05
2022-08-24T05:03:11.271Z,65.81
2022-08-24T05:05:41.789Z,66.09
2022-08-24T05:08:11.628Z,65.94
2022-08-24T05:10:40.368Z,65.75
2022-08-24T05:13:08.789Z,65.56
2022-08-24T05:15:38.117Z,65.94
2022-08-24T05:18:07.644Z,66.23
2022-08-24T05:20:36.776Z,65.73
2022-08-24T05:23:05.308Z,65.80
2022-08-24T05:25:35.928Z,65.68
2022-08-24T05:28:04.041Z,65.65
2022-08-24T05:30:32.023Z,65.34
2022-08-24T05:32:59.981Z,65.36
2022-08-24T05:35:27.916Z,65.40
2022-08-24T05:37:56.049Z,65.01
2022-08-24T05:40:30.619Z,65.09
2022-08-24T05:43:03.541Z,65.46
2022-08-24T05:45:31.710Z,64.83
2022-08-24T05:47:59.647Z,64.65
2022-08-24T05:50:53.191Z,64.81
2022-08-24T05:53:21.307Z,64.88
2022-08-24T05:55:49.139Z,64.63
2022-08-24T05:58:30.636Z,64.00
2022-08-24T06:01:00.286Z,63.81
2022-08-24T06:03:28.707Z,63.98
2022-08-24T06:05:57.817Z,64.24
2022-08-24T06:08:26.040Z,64.19
2022-08-24T06:10:54.137Z,63.79
2022-08-24T06:13:23.532Z,63.83
2022-08-24T06:16:20.276Z,63.76
2022-08-24T06:18:50.703Z,63.71
2022-08-24T06:21:21.907Z,63.93
2022-08-24T06:23:51.063Z,63.54
2022-08-24T06:26:38.358Z,63.11
2022-08-24T06:29:08.962Z,63.05
2022-08-24T06:31:46.990Z,63.11
2022-08-24T06:34:18.957Z,62.91
2022-08-24T06:36:47.648Z,62.51
2022-08-24T06:39:15.668Z,62.41
2022-08-24T06:41:46.476Z,62.53
2022-08-24T06:44:22.602Z,62.20
2022-08-24T06:47:00.683Z,61.93
2022-08-24T06:49:28.913Z,62.03
2022-08-24T06:51:56.761Z,61.66
2022-08-24T06:54:24.944Z,61.28
2022-08-24T06:56:52.964Z,60.99
2022-08-24T06:59:22.233Z,60.95
2022-08-24T07:01:50.444Z,60.61
2022-08-24T07:04:18.956Z,60.48
2022-08-24T07:07:05.745Z,60.17
2022-08-24T07:09:34.387Z,60.02
2022-08-24T07:12:02.532Z,59.85
2022-08-24T07:14:32.512Z,59.54
2022-08-24T07:17:02.711Z,59.31
2022-08-24T07:19:32.701Z,59.40
2022-08-24T07:22:01.603Z,58.90
2022-08-24T07:24:29.520Z,58.59
2022-08-24T07:26:58.216Z,58.21
2022-08-24T07:32:16.589Z,57.83
2022-08-24T07:34:46.228Z,57.15
2022-08-24T07:37:14.273Z,57.17
2022-08-24T07:39:46.534Z,57.59
2022-08-24T07:42:20.756Z,56.75
2022-08-24T07:44:54.079Z,56.46
2022-08-24T07:47:44.556Z,56.03
2022-08-24T07:50:25.854Z,55.91
2022-08-24T07:52:53.730Z,56.00
2022-08-24T07:55:21.765Z,55.94
2022-08-24T07:57:51.082Z,55.21
2022-08-24T08:00:21.208Z,54.90
2022-08-24T08:02:56.847Z,54.50
2022-08-24T08:05:25.369Z,53.77
2022-08-24T08:07:54.981Z,54.02
2022-08-24T08:10:23.584Z,53.34
2022-08-24T08:12:53.696Z,52.94
2022-08-24T08:15:21.726Z,53.45
2022-08-24T08:18:03.492Z,52.21
2022-08-24T08:20:33.233Z,51.59
2022-08-24T08:23:19.190Z,51.43
2022-08-24T08:26:22.524Z,51.15
2022-08-24T08:29:12.938Z,50.75
2022-08-24T08:31:43.072Z,50.74
2022-08-24T08:34:14.096Z,49.85
2022-08-24T08:36:47.218Z,48.97
2022-08-24T08:39:19.981Z,49.34
2022-08-24T08:42:19.825Z,48.44
2022-08-24T08:45:28.268Z,48.70
2022-08-24T08:48:55.737Z,47.62
2022-08-24T08:51:59.410Z,47.45
2022-08-24T08:54:33.871Z,47.31
2022-08-24T08:57:17.293Z,47.09
2022-08-24T09:00:05.092Z,46.70
2022-08-24T09:03:17.382Z,45.57
2022-08-24T09:06:40.739Z,45.38
2022-08-24T09:09:27.679Z,45.61
2022-08-24T09:12:05.317Z,44.64
2022-08-24T09:15:11.922Z,44.46
2022-08-24T09:17:55.764Z,43.75
2022-08-24T09:20:41.612Z,44.41
2022-08-24T09:23:19.725Z,44.41
2022-08-24T09:25:58.848Z,44.09
2022-08-24T09:28:41.068Z,43.95
2022-08-24T09:34:16.878Z,42.69
2022-08-24T09:36:55.511Z,42.47
2022-08-24T09:39:56.954Z,42.89
2022-08-24T09:43:01.338Z,41.79
2022-08-24T09:46:07.947Z,41.25
2022-08-24T09:49:10.071Z,42.03
2022-08-24T09:52:11.933Z,42.29
2022-08-24T09:54:59.436Z,41.43
2022-08-24T09:58:00.427Z,41.83
2022-08-24T10:00:35.308Z,41.31
2022-08-24T10:03:12.182Z,41.02
2022-08-24T10:06:06.118Z,41.21
2022-08-24T10:08:51.210Z,40.82
2022-08-24T10:11:27.611Z,40.20
2022-08-24T10:14:04.450Z,40.24
2022-08-24T10:16:41.575Z,39.42
2022-08-24T10:19:27.331Z,39.57
2022-08-24T10:22:03.887Z,39.72
2022-08-24T10:24:49.757Z,39.83
2022-08-24T10:27:32.224Z,39.98
2022-08-24T10:30:41.528Z,39.01
2022-08-24T10:33:18.805Z,38.18
2022-08-24T10:36:14.641Z,38.08
2022-08-24T10:39:07.696Z,38.42
2022-08-24T10:42:04.015Z,38.09
2022-08-24T10:44:50.943Z,37.49
2022-08-24T10:47:26.814Z,37.63
2022-08-24T10:50:20.883Z,35.25
2022-08-24T10:53:14.232Z,36.50
2022-08-24T10:55:44.532Z,37.44
2022-08-24T10:58:43.656Z,36.48
2022-08-24T11:01:18.124Z,36.08
2022-08-24T11:03:52.570Z,36.39
2022-08-24T11:06:21.632Z,36.31
2022-08-24T11:08:56.152Z,36.58
2022-08-24T11:11:29.568Z,34.95
2022-08-24T11:14:00.520Z,35.14
2022-08-24T11:16:32.810Z,35.61
2022-08-24T11:19:02.714Z,35.30
2022-08-24T11:21:45.090Z,35.76
2022-08-24T11:24:30.592Z,34.66
2022-08-24T11:27:04.324Z,34.17
2022-08-24T11:29:56.665Z,34.60
2022-08-24T11:32:37.673Z,34.96
2022-08-24T11:35:10.526Z,35.19
2022-08-24T11:37:40.516Z,35.25
2022-08-24T11:40:10.614Z,35.17
2022-08-24T11:43:17.764Z,35.37
2022-08-24T11:45:51.871Z,35.04
2022-08-24T11:48:36.045Z,35.53
2022-08-24T11:51:12.827Z,35.55
2022-08-24T11:53:51.943Z,34.61
2022-08-24T11:56:26.581Z,34.66
2022-08-24T11:59:03.773Z,34.39
2022-08-24T12:01:44.450Z,34.29
2022-08-24T12:04:38.044Z,34.28
2022-08-24T12:07:19.988Z,34.58
2022-08-24T12:10:03.532Z,33.67
2022-08-24T12:12:38.726Z,34.30
2022-08-24T12:15:14.259Z,34.64
2022-08-24T12:17:48.685Z,34.00
2022-08-24T12:20:27.144Z,34.03
2022-08-24T12:22:59.370Z,33.95
2022-08-24T12:25:48.084Z,34.47
2022-08-24T12:28:22.015Z,34.37
2022-08-24T12:30:53.901Z,33.21
2022-08-24T12:33:28.414Z,33.14
2022-08-24T12:36:03.356Z,34.10
2022-08-24T12:38:36.801Z,34.14
2022-08-24T12:41:17.789Z,33.86
2022-08-24T12:43:50.674Z,33.51
2022-08-24T12:46:24.537Z,33.59
2022-08-24T12:48:56.762Z,33.85
2022-08-24T12:51:46.157Z,33.52
2022-08-24T12:54:33.531Z,32.47
2022-08-24T12:57:16.650Z,33.19
2022-08-24T12:59:48.189Z,33.38
2022-08-24T13:02:36.992Z,32.25
2022-08-24T13:05:16.389Z,32.02
2022-08-24T13:07:46.584Z,32.29
2022-08-24T13:10:35.465Z,32.50
2022-08-24T13:13:18.465Z,31.38
2022-08-24T13:16:03.124Z,31.93
2022-08-24T13:19:09.949Z,31.49
2022-08-24T13:21:46.275Z,31.21
2022-08-24T13:24:53.633Z,31.28
2022-08-24T13:28:12.078Z,31.33
2022-08-24T13:31:00.761Z,31.51
2022-08-24T13:33:34.912Z,32.10
2022-08-24T13:36:10.735Z,32.18
2022-08-24T13:39:01.748Z,32.09
2022-08-24T13:41:50.142Z,32.42
2022-08-24T13:44:38.897Z,31.86
2022-08-24T13:47:13.459Z,32.59
2022-08-24T13:50:02.223Z,33.47
2022-08-24T13:52:42.627Z,32.29
2022-08-24T13:55:36.096Z,32.88
2022-08-24T13:58:19.031Z,32.95
2022-08-24T14:00:52.326Z,32.89
2022-08-24T14:03:57.421Z,32.80
2022-08-24T14:06:40.618Z,32.36
2022-08-24T14:09:37.303Z,32.32
2022-08-24T14:12:19.800Z,32.10
2022-08-24T14:15:13.024Z,32.06
2022-08-24T14:17:54.051Z,32.06
2022-08-24T14:20:57.079Z,32.25
2022-08-24T14:23:34.924Z,31.89
2022-08-24T14:26:40.619Z,32.44
2022-08-24T14:29:32.108Z,30.97
2022-08-24T14:32:35.881Z,30.96
2022-08-24T14:35:40.720Z,31.66
2022-08-24T14:38:27.061Z,30.90
2022-08-24T14:41:04.039Z,31.01
2022-08-24T14:43:47.835Z,31.29
2022-08-24T14:46:24.573Z,30.94
2022-08-24T14:49:08.934Z,30.47
2022-08-24T14:51:54.479Z,30.55
2022-08-24T14:54:32.720Z,31.55
2022-08-24T14:57:14.809Z,30.70
2022-08-24T14:59:55.148Z,31.11
2022-08-24T15:02:46.135Z,30.76
2022-08-24T15:05:23.810Z,30.78
2022-08-24T15:07:58.729Z,30.34
2022-08-24T15:10:30.149Z,29.91
2022-08-24T15:13:03.925Z,30.19
2022-08-24T15:15:35.936Z,29.99
2022-08-24T15:18:15.680Z,30.10
2022-08-24T15:20:56.702Z,29.86
2022-08-24T15:23:39.426Z,30.05
2022-08-24T15:26:15.242Z,30.16
2022-08-24T15:28:56.598Z,29.79
2022-08-24T15:31:29.829Z,29.88
2022-08-24T15:34:02.092Z,29.59
2022-08-24T15:36:33.022Z,29.90
2022-08-24T15:39:01.504Z,28.39
2022-08-24T15:41:33.087Z,28.42
2022-08-24T15:44:05.316Z,27.27
2022-08-24T15:46:38.046Z,27.33
2022-08-24T15:49:17.358Z,26.68
2022-08-24T15:51:51.798Z,26.81
2022-08-24T15:54:32.995Z,27.11
2022-08-24T15:57:04.559Z,26.34
2022-08-24T15:59:45.525Z,26.55
2022-08-24T16:02:28.600Z,25.84
2022-08-24T16:05:14.353Z,25.59
2022-08-24T16:08:10.315Z,24.93
2022-08-24T16:10:41.474Z,25.39
2022-08-24T16:13:14.572Z,24.66
2022-08-24T16:15:48.142Z,24.67
2022-08-24T16:18:17.137Z,24.82
2022-08-24T16:20:47.125Z,24.55
2022-08-24T16:23:24.650Z,24.32
2022-08-24T16:26:21.081Z,24.31
2022-08-24T16:28:50.421Z,24.49
2022-08-24T16:31:54.090Z,23.62
2022-08-24T16:34:28.621Z,24.57
2022-08-24T16:36:57.067Z,23.96
2022-08-24T16:39:25.635Z,24.02
2022-08-24T16:41:57.497Z,23.62
2022-08-24T16:44:29.037Z,24.14
2022-08-24T16:46:56.987Z,24.10
2022-08-24T16:49:24.952Z,23.22
2022-08-24T16:51:52.924Z,23.33
2022-08-24T16:54:20.772Z,23.25
2022-08-24T16:56:48.762Z,22.79
2022-08-24T16:59:24.974Z,23.38
2022-08-24T17:01:52.985Z,23.24
2022-08-24T17:04:21.251Z,23.05
2022-08-24T17:06:52.542Z,23.26
2022-08-24T17:09:25.017Z,23.27
2022-08-24T17:11:53.040Z,23.06
2022-08-24T17:14:22.395Z,23.56
2022-08-24T17:16:50.510Z,23.58
2022-08-24T17:19:20.710Z,23.90
2022-08-24T17:21:49.287Z,23.82
2022-08-24T17:24:20.924Z,24.87
2022-08-24T17:26:50.862Z,25.88
2022-08-24T17:29:19.831Z,26.63
2022-08-24T17:31:50.676Z,27.39
2022-08-24T17:34:20.450Z,28.64
2022-08-24T17:36:50.063Z,28.90
2022-08-24T17:39:19.388Z,29.24
2022-08-24T17:41:47.667Z,29.64
2022-08-24T17:44:19.583Z,30.25
2022-08-24T17:46:51.522Z,30.48
2022-08-24T17:49:19.909Z,30.71
2022-08-24T17:51:49.611Z,30.96
2022-08-24T17:54:17.666Z,31.40
2022-08-24T17:56:48.659Z,31.71
2022-08-24T17:59:23.509Z,31.99
2022-08-24T18:01:54.939Z,32.42
2022-08-24T18:04:27.545Z,32.92
2022-08-24T18:06:58.058Z,33.25
2022-08-24T18:09:30.844Z,33.48
2022-08-24T18:12:03.865Z,33.83
2022-08-24T18:14:34.401Z,33.91
2022-08-24T18:17:07.522Z,34.58
2022-08-24T18:19:36.169Z,34.40
2022-08-24T18:22:05.320Z,34.47
2022-08-24T18:24:33.979Z,34.71
2022-08-24T18:27:10.187Z,35.42
2022-08-24T18:29:40.452Z,35.23
2022-08-24T18:32:12.222Z,35.63
2022-08-24T18:34:41.136Z,36.14
2022-08-24T18:37:09.435Z,36.29
2022-08-24T18:39:37.609Z,36.71
2022-08-24T18:42:08.867Z,36.72
2022-08-24T18:44:38.753Z,36.98
2022-08-24T18:47:07.132Z,37.29
2022-08-24T18:49:36.657Z,37.13
2022-08-24T18:52:07.663Z,37.42
2022-08-24T18:54:39.245Z,37.19
2022-08-24T18:57:08.645Z,37.39
2022-08-24T18:59:40.667Z,37.42
2022-08-24T19:02:29.917Z,37.93
2022-08-24T19:05:01.493Z,37.91
2022-08-24T19:07:32.787Z,37.94
2022-08-24T19:10:01.233Z,37.97
2022-08-24T19:12:31.572Z,38.25
2022-08-24T19:15:01.961Z,38.60
2022-08-24T19:17:30.069Z,38.54
2022-08-24T19:19:59.460Z,38.76
2022-08-24T19:22:27.775Z,39.13
2022-08-24T19:24:56.325Z,39.18
2022-08-24T19:27:25.418Z,39.41
2022-08-24T19:29:55.889Z,39.77
2022-08-24T19:32:26.857Z,39.82
2022-08-24T19:34:55.563Z,40.21
2022-08-24T19:37:24.876Z,40.15
2022-08-24T19:39:53.135Z,40.44
2022-08-24T19:42:22.508Z,40.95
2022-08-24T19:45:10.986Z,41.15
2022-08-24T19:47:39.840Z,41.37
2022-08-24T19:50:08.947Z,41.64
2022-08-24T19:52:39.860Z,42.08
2022-08-24T19:55:10.643Z,42.03
2022-08-24T19:57:44.211Z,42.46
2022-08-24T20:00:28.959Z,42.45
2022-08-24T20:02:58.761Z,42.61
2022-08-24T20:05:28.988Z,42.61
2022-08-24T20:07:59.864Z,43.02
2022-08-24T20:10:28.101Z,43.05
2022-08-24T20:12:56.145Z,43.50
2022-08-24T20:15:25.012Z,43.41
2022-08-24T20:17:56.435Z,43.52
2022-08-24T20:20:27.171Z,44.21
2022-08-24T20:22:55.642Z,43.95
2022-08-24T20:25:24.894Z,44.40
2022-08-24T20:28:12.199Z,44.09
2022-08-24T20:30:43.053Z,44.24
2022-08-24T20:33:16.179Z,44.83
2022-08-24T20:35:44.849Z,44.52
2022-08-24T20:38:16.152Z,45.40
2022-08-24T20:40:45.415Z,45.34
2022-08-24T20:43:13.522Z,45.05
2022-08-24T20:45:42.063Z,45.55
2022-08-24T20:48:11.973Z,45.40
2022-08-24T20:50:43.391Z,45.59
2022-08-24T20:53:12.291Z,45.74
2022-08-24T20:55:41.545Z,45.55
2022-08-24T20:58:11.169Z,46.03
2022-08-24T21:00:40.926Z,46.01
2022-08-24T21:03:08.980Z,46.35
2022-08-24T21:05:37.224Z,46.49
2022-08-24T21:08:06.161Z,46.59
2022-08-24T21:10:33.979Z,47.02
2022-08-24T21:13:02.526Z,47.35
2022-08-24T21:15:32.166Z,47.19
2022-08-24T21:18:00.035Z,47.50
2022-08-24T21:20:28.443Z,47.74
2022-08-24T21:22:57.343Z,47.63
2022-08-24T21:25:25.762Z,48.41
2022-08-24T21:27:54.201Z,48.71
2022-08-24T21:30:24.098Z,48.66
2022-08-24T21:33:10.825Z,48.85
2022-08-24T21:35:39.171Z,48.87
2022-08-24T21:38:08.477Z,49.31
2022-08-24T21:40:36.772Z,49.65
2022-08-24T21:43:09.318Z,49.58
2022-08-24T21:45:43.020Z,49.67
2022-08-24T21:48:14.451Z,50.05
2022-08-24T21:50:42.602Z,50.12
2022-08-24T21:53:10.602Z,50.63
2022-08-24T21:55:39.005Z,50.85
2022-08-24T21:58:06.989Z,50.54
2022-08-24T22:00:35.554Z,51.17
2022-08-24T22:03:04.410Z,50.97
2022-08-24T22:05:34.066Z,50.99
2022-08-24T22:08:02.000Z,51.68
2022-08-24T22:10:31.570Z,51.67
2022-08-24T22:13:03.976Z,52.20
2022-08-24T22:15:32.773Z,52.17
2022-08-24T22:18:01.295Z,52.63
2022-08-24T22:20:29.306Z,53.28
2022-08-24T22:22:59.400Z,52.76
2022-08-24T22:25:27.562Z,53.05
2022-08-24T22:27:55.391Z,53.47
2022-08-24T22:30:23.287Z,53.35
2022-08-24T22:32:51.236Z,53.73
2022-08-24T22:35:19.366Z,54.47
2022-08-24T22:37:47.751Z,54.12
2022-08-24T22:40:19.022Z,54.07
2022-08-24T22:42:47.169Z,54.38
2022-08-24T22:45:15.640Z,55.14
2022-08-24T22:47:43.542Z,55.29
2022-08-24T22:50:11.684Z,55.28
2022-08-24T22:52:39.706Z,55.37
2022-08-24T22:55:08.713Z,55.41
2022-08-24T22:57:37.912Z,55.95
2022-08-24T23:00:07.731Z,55.85
2022-08-24T23:02:36.993Z,55.82
2022-08-24T23:05:05.395Z,56.53
2022-08-24T23:07:35.293Z,56.42
2022-08-24T23:10:03.283Z,56.74
2022-08-24T23:12:31.145Z,56.41
2022-08-24T23:15:00.726Z,56.22
2022-08-24T23:17:28.676Z,56.74
2022-08-24T23:20:01.847Z,56.90
2022-08-24T23:22:32.376Z,56.85
2022-08-24T23:25:01.396Z,57.29
2022-08-24T23:27:32.803Z,57.02
2022-08-24T23:30:10.683Z,57.02
2022-08-24T23:32:39.080Z,57.70
2022-08-24T23:35:08.010Z,57.77
2022-08-24T23:37:36.012Z,58.30
2022-08-24T23:40:04.653Z,58.36
2022-08-24T23:42:32.504Z,58.74
2022-08-24T23:45:00.306Z,58.75
2022-08-24T23:47:30.272Z,58.94
2022-08-24T23:50:04.410Z,58.98
2022-08-24T23:52:39.242Z,59.43
2022-08-24T23:55:21.908Z,60.19
2022-08-24T23:57:51.151Z,60.16
